createdAt,value
2019-05-23T00:01:15.896Z,5.80
2019-05-23T00:03:49.052Z,7.47
2019-05-23T00:06:17.921Z,4.87
2019-05-23T00:08:46.801Z,8.80
2019-05-23T00:11:32.239Z,7.03
2019-05-23T00:14:04.689Z,5.63
2019-05-23T00:16:33.047Z,6.73
2019-05-23T00:19:01.103Z,7.17
2019-05-23T00:21:30.123Z,4.77
2019-05-23T00:23:57.954Z,6.03
2019-05-23T00:26:26.071Z,6.60
2019-05-23T00:29:09.022Z,7.53
2019-05-23T00:34:18.128Z,5.23
2019-05-23T00:36:46.242Z,6.33
2019-05-23T00:39:34.364Z,4.50
2019-05-23T00:42:01.524Z,6.17
2019-05-23T00:44:48.377Z,5.67
2019-05-23T00:47:18.352Z,5.83
2019-05-23T00:50:06.476Z,5.90
2019-05-23T00:52:33.651Z,4.93
2019-05-23T00:55:01.541Z,6.00
2019-05-23T00:57:28.583Z,5.40
2019-05-23T00:59:57.193Z,6.33
2019-05-23T01:02:25.303Z,4.27
2019-05-23T01:05:12.535Z,6.37
2019-05-23T01:07:40.490Z,4.67
2019-05-23T01:10:09.263Z,6.47
2019-05-23T01:12:36.853Z,4.97
2019-05-23T01:15:25.622Z,6.73
2019-05-23T01:18:12.669Z,7.23
2019-05-23T01:20:59.427Z,5.73
2019-05-23T01:23:52.843Z,4.83
2019-05-23T01:26:20.795Z,6.97
2019-05-23T01:28:48.626Z,6.93
2019-05-23T01:31:19.657Z,6.73
2019-05-23T01:33:48.134Z,5.40
2019-05-23T01:36:15.848Z,6.23
2019-05-23T01:38:43.352Z,5.20
2019-05-23T01:41:12.191Z,5.27
2019-05-23T01:43:39.192Z,6.77
2019-05-23T01:46:06.648Z,4.53
2019-05-23T01:48:34.185Z,5.67
2019-05-23T01:51:01.693Z,6.10
2019-05-23T01:53:48.749Z,6.57
2019-05-23T01:56:16.158Z,7.23
2019-05-23T01:58:43.666Z,6.67
2019-05-23T02:01:12.131Z,5.10
2019-05-23T02:03:40.644Z,6.53
2019-05-23T02:06:08.129Z,5.17
2019-05-23T02:08:36.004Z,8.17
2019-05-23T02:11:03.597Z,7.23
2019-05-23T02:13:30.980Z,7.50
2019-05-23T02:15:58.554Z,6.00
2019-05-23T02:18:25.554Z,5.63
2019-05-23T02:20:53.248Z,5.40
2019-05-23T02:23:20.902Z,6.77
2019-05-23T02:25:48.811Z,6.60
2019-05-23T02:28:17.294Z,6.00
2019-05-23T02:30:44.345Z,5.47
2019-05-23T02:33:11.756Z,5.20
2019-05-23T02:35:39.862Z,6.10
2019-05-23T02:38:18.184Z,5.40
2019-05-23T02:41:08.269Z,6.97
2019-05-23T02:43:35.958Z,5.57
2019-05-23T02:46:06.752Z,6.10
2019-05-23T02:48:37.821Z,7.20
2019-05-23T02:51:08.142Z,4.67
2019-05-23T02:53:36.643Z,6.40
2019-05-23T02:56:07.412Z,6.07
2019-05-23T02:58:39.969Z,6.73
2019-05-23T03:01:41.628Z,5.83
2019-05-23T03:04:10.307Z,6.03
2019-05-23T03:06:38.945Z,5.87
2019-05-23T03:09:07.178Z,7.47
2019-05-23T03:11:56.413Z,5.30
2019-05-23T03:14:25.506Z,5.73
2019-05-23T03:16:53.634Z,6.77
2019-05-23T03:19:36.391Z,5.70
2019-05-23T03:22:30.237Z,7.27
2019-05-23T03:25:00.201Z,5.70
2019-05-23T03:27:29.021Z,5.13
2019-05-23T03:29:56.896Z,6.33
2019-05-23T03:32:49.391Z,5.30
2019-05-23T03:35:22.682Z,6.33
2019-05-23T03:37:51.166Z,5.70
2019-05-23T03:40:18.181Z,6.27
2019-05-23T03:42:45.598Z,5.43
2019-05-23T03:45:39.563Z,6.70
2019-05-23T03:48:05.305Z,8.57
2019-05-23T03:50:33.562Z,7.53
2019-05-23T03:53:21.089Z,5.87
2019-05-23T03:55:51.995Z,7.30
2019-05-23T03:58:20.816Z,7.07
2019-05-23T04:01:09.724Z,5.80
2019-05-23T04:03:39.874Z,6.70
2019-05-23T04:06:26.481Z,6.30
2019-05-23T04:08:53.601Z,7.23
2019-05-23T04:11:20.899Z,8.13
2019-05-23T04:13:47.925Z,6.07
2019-05-23T04:16:15.453Z,5.90
2019-05-23T04:18:42.600Z,6.83
2019-05-23T04:21:09.815Z,8.13
2019-05-23T04:23:56.878Z,9.20
2019-05-23T04:27:00.115Z,7.73
2019-05-23T04:29:52.779Z,7.57
2019-05-23T04:32:21.021Z,9.40
2019-05-23T04:35:08.740Z,6.03
2019-05-23T04:37:49.220Z,5.90
2019-05-23T04:40:17.918Z,6.83
2019-05-23T04:42:45.610Z,10.00
2019-05-23T04:45:12.649Z,8.30
2019-05-23T04:47:40.001Z,8.03
2019-05-23T04:50:28.108Z,8.63
2019-05-23T04:53:15.476Z,8.63
2019-05-23T04:55:43.077Z,9.40
2019-05-23T04:58:11.646Z,7.47
2019-05-23T05:00:39.688Z,9.57
2019-05-23T05:03:06.740Z,8.67
2019-05-23T05:05:34.379Z,8.57
2019-05-23T05:08:02.091Z,7.97
2019-05-23T05:10:30.208Z,8.77
2019-05-23T05:12:59.407Z,11.90
2019-05-23T05:15:26.970Z,8.80
2019-05-23T05:17:54.098Z,9.17
2019-05-23T05:20:23.957Z,8.17
2019-05-23T05:22:52.262Z,8.73
2019-05-23T05:25:20.109Z,10.10
2019-05-23T05:27:47.446Z,9.00
2019-05-23T05:30:15.324Z,10.43
2019-05-23T05:32:45.237Z,7.97
2019-05-23T05:35:13.168Z,9.27
2019-05-23T05:37:40.973Z,8.23
2019-05-23T05:40:09.075Z,13.90
2019-05-23T05:42:37.704Z,10.03
2019-05-23T05:45:24.914Z,10.10
2019-05-23T05:47:52.864Z,11.73
2019-05-23T05:50:20.280Z,8.97
2019-05-23T05:52:50.052Z,14.17
2019-05-23T05:55:17.579Z,10.97
2019-05-23T05:57:45.043Z,12.17
2019-05-23T06:00:32.432Z,11.50
2019-05-23T06:03:05.080Z,11.63
2019-05-23T06:05:43.869Z,11.73
2019-05-23T06:08:12.099Z,11.00
2019-05-23T06:10:59.466Z,11.40
2019-05-23T06:13:27.256Z,10.07
2019-05-23T06:16:14.213Z,11.90
2019-05-23T06:18:42.514Z,11.00
2019-05-23T06:21:30.034Z,11.80
2019-05-23T06:23:57.628Z,10.60
2019-05-23T06:26:25.007Z,9.57
2019-05-23T06:28:53.018Z,10.70
2019-05-23T06:31:24.063Z,10.30
2019-05-23T06:33:52.127Z,11.87
2019-05-23T06:36:19.068Z,10.57
2019-05-23T06:39:08.739Z,11.33
2019-05-23T06:41:36.067Z,13.00
2019-05-23T06:44:03.569Z,9.07
2019-05-23T06:46:31.456Z,13.17
2019-05-23T06:48:58.388Z,11.13
2019-05-23T06:51:25.889Z,12.33
2019-05-23T06:53:53.574Z,11.17
2019-05-23T06:56:20.723Z,9.40
2019-05-23T06:58:47.609Z,12.73
2019-05-23T07:01:15.024Z,10.30
2019-05-23T07:04:02.262Z,13.07
2019-05-23T07:06:29.701Z,12.77
2019-05-23T07:08:57.090Z,11.53
2019-05-23T07:11:43.972Z,11.77
2019-05-23T07:14:11.725Z,10.03
2019-05-23T07:16:39.173Z,10.47
2019-05-23T07:19:06.408Z,8.87
2019-05-23T07:21:34.381Z,8.30
2019-05-23T07:24:01.268Z,8.43
2019-05-23T07:26:29.007Z,9.03
2019-05-23T07:28:56.620Z,9.93
2019-05-23T07:31:23.632Z,11.37
2019-05-23T07:34:01.102Z,9.27
2019-05-23T07:36:19.937Z,11.33
2019-05-23T07:38:46.856Z,10.60
2019-05-23T07:41:14.227Z,9.77
2019-05-23T07:43:42.215Z,12.47
2019-05-23T07:46:09.554Z,9.50
2019-05-23T07:48:36.861Z,8.17
2019-05-23T07:51:04.557Z,9.40
2019-05-23T07:53:51.237Z,9.97
2019-05-23T07:56:20.395Z,7.27
2019-05-23T07:58:47.986Z,7.60
2019-05-23T08:01:18.749Z,6.90
2019-05-23T08:03:45.790Z,9.60
2019-05-23T08:06:13.100Z,9.47
2019-05-23T08:08:40.862Z,8.20
2019-05-23T08:13:54.330Z,9.00
2019-05-23T08:16:21.754Z,7.53
2019-05-23T08:19:08.699Z,8.33
2019-05-23T08:21:42.670Z,8.40
2019-05-23T08:24:11.898Z,9.33
2019-05-23T08:26:40.666Z,8.00
2019-05-23T08:29:26.391Z,6.80
2019-05-23T08:31:37.342Z,9.70
2019-05-23T08:34:05.615Z,7.33
2019-05-23T08:36:52.698Z,8.43
2019-05-23T08:39:21.685Z,11.60
2019-05-23T08:41:49.522Z,7.80
2019-05-23T08:44:17.343Z,8.27
2019-05-23T08:46:45.700Z,8.00
2019-05-23T08:49:32.603Z,7.17
2019-05-23T08:52:19.390Z,6.90
2019-05-23T08:54:47.066Z,5.57
2019-05-23T08:57:14.508Z,6.10
2019-05-23T08:59:41.829Z,4.80
2019-05-23T09:02:11.271Z,6.10
2019-05-23T09:04:38.172Z,5.23
2019-05-23T09:07:06.698Z,7.97
2019-05-23T09:09:34.824Z,3.87
2019-05-23T09:12:02.954Z,5.43
2019-05-23T09:14:30.989Z,5.40
2019-05-23T09:17:18.526Z,4.00
2019-05-23T09:19:46.022Z,3.77
2019-05-23T09:22:18.064Z,4.17
2019-05-23T09:24:45.820Z,3.17
2019-05-23T09:27:13.246Z,4.63
2019-05-23T09:29:41.454Z,6.13
2019-05-23T09:32:09.361Z,7.23
2019-05-23T09:34:36.382Z,4.93
2019-05-23T09:37:04.453Z,4.87
2019-05-23T09:39:31.838Z,5.70
2019-05-23T09:41:58.886Z,4.27
2019-05-23T09:44:26.390Z,3.13
2019-05-23T09:46:53.420Z,3.23
2019-05-23T09:49:20.634Z,4.60
2019-05-23T09:54:35.298Z,4.60
2019-05-23T09:57:02.801Z,3.93
2019-05-23T09:59:30.026Z,3.07
2019-05-23T10:01:59.459Z,3.40
2019-05-23T10:04:26.441Z,3.30
2019-05-23T10:06:54.354Z,5.43
2019-05-23T10:09:21.328Z,3.40
2019-05-23T10:11:48.521Z,3.10
2019-05-23T10:14:20.448Z,1.90
2019-05-23T10:16:47.925Z,2.80
2019-05-23T10:19:15.036Z,3.00
2019-05-23T10:21:42.106Z,3.57
2019-05-23T10:24:09.654Z,1.93
2019-05-23T10:26:36.852Z,3.07
2019-05-23T10:29:03.865Z,1.60
2019-05-23T10:31:30.984Z,2.07
2019-05-23T10:33:58.424Z,4.20
2019-05-23T10:36:45.511Z,3.70
2019-05-23T10:39:12.830Z,1.83
2019-05-23T10:41:39.979Z,5.03
2019-05-23T10:44:07.429Z,2.00
2019-05-23T10:46:54.754Z,5.80
2019-05-23T10:49:22.182Z,1.67
2019-05-23T10:52:10.527Z,2.43
2019-05-23T10:54:38.402Z,1.93
2019-05-23T10:57:05.563Z,5.30
2019-05-23T10:59:32.578Z,1.60
2019-05-23T11:02:19.833Z,2.10
2019-05-23T11:04:47.462Z,3.73
2019-05-23T11:07:16.357Z,3.50
2019-05-23T11:09:43.738Z,5.00
2019-05-23T11:12:11.712Z,4.07
2019-05-23T11:14:58.899Z,1.77
2019-05-23T11:17:47.722Z,2.07
2019-05-23T11:20:17.449Z,1.40
2019-05-23T11:22:45.052Z,1.73
2019-05-23T11:25:12.740Z,1.10
2019-05-23T11:27:40.505Z,1.93
2019-05-23T11:30:07.613Z,2.83
2019-05-23T11:32:54.447Z,1.07
2019-05-23T11:38:08.838Z,1.40
2019-05-23T11:40:55.606Z,1.50
2019-05-23T11:43:23.183Z,4.20
2019-05-23T11:46:21.089Z,1.57
2019-05-23T11:48:48.738Z,1.67
2019-05-23T11:51:16.474Z,1.73
2019-05-23T11:54:08.445Z,2.53
2019-05-23T11:59:21.435Z,4.80
2019-05-23T12:02:08.437Z,9.03
2019-05-23T12:04:40.979Z,1.50
2019-05-23T12:07:16.374Z,2.57
2019-05-23T12:10:03.271Z,2.17
2019-05-23T12:12:30.743Z,1.70
2019-05-23T12:14:58.662Z,1.70
2019-05-23T12:17:31.145Z,1.47
2019-05-23T12:19:58.572Z,2.10
2019-05-23T12:22:29.725Z,2.93
2019-05-23T12:24:57.694Z,3.87
2019-05-23T12:27:25.247Z,4.27
2019-05-23T12:29:52.363Z,3.13
2019-05-23T12:32:39.184Z,1.97
2019-05-23T12:35:11.166Z,4.90
2019-05-23T12:37:35.571Z,5.60
2019-05-23T12:40:04.001Z,2.97
2019-05-23T12:42:31.016Z,3.03
2019-05-23T12:44:58.006Z,3.93
2019-05-23T12:47:56.659Z,2.30
2019-05-23T12:50:45.548Z,3.73
2019-05-23T12:53:16.001Z,6.53
2019-05-23T12:55:43.384Z,3.83
2019-05-23T12:58:10.724Z,6.13
2019-05-23T13:00:51.868Z,4.50
2019-05-23T13:03:38.897Z,6.17
2019-05-23T13:06:07.057Z,5.03
2019-05-23T13:08:34.410Z,4.57
2019-05-23T13:11:01.549Z,3.37
2019-05-23T13:13:29.217Z,5.13
2019-05-23T13:15:56.391Z,4.33
2019-05-23T13:18:43.800Z,4.13
2019-05-23T13:21:11.480Z,3.37
2019-05-23T13:23:38.527Z,5.60
2019-05-23T13:26:31.875Z,4.40
2019-05-23T13:28:59.256Z,3.90
2019-05-23T13:31:46.338Z,4.03
2019-05-23T13:34:13.693Z,5.20
2019-05-23T13:37:01.008Z,4.07
2019-05-23T13:39:29.316Z,3.67
2019-05-23T13:41:56.907Z,4.23
2019-05-23T13:44:34.278Z,4.47
2019-05-23T13:46:53.490Z,5.57
2019-05-23T13:49:40.475Z,4.20
2019-05-23T13:52:07.639Z,4.03
2019-05-23T13:54:54.262Z,5.40
2019-05-23T13:57:21.500Z,4.97
2019-05-23T13:59:48.937Z,5.57
2019-05-23T14:02:15.971Z,7.70
2019-05-23T14:04:45.175Z,4.57
2019-05-23T14:07:14.267Z,4.50
2019-05-23T14:09:41.703Z,3.03
2019-05-23T14:12:28.781Z,3.50
2019-05-23T14:14:56.652Z,2.97
2019-05-23T14:17:32.824Z,4.43
2019-05-23T14:20:00.236Z,4.43
2019-05-23T14:22:52.756Z,5.37
2019-05-23T14:25:20.118Z,7.10
2019-05-23T14:28:08.510Z,4.93
2019-05-23T14:30:55.124Z,4.30
2019-05-23T14:33:43.405Z,3.13
2019-05-23T14:36:23.508Z,4.70
2019-05-23T14:38:51.459Z,4.97
2019-05-23T14:41:18.459Z,4.30
2019-05-23T14:44:05.240Z,5.90
2019-05-23T14:46:38.184Z,5.43
2019-05-23T14:49:21.691Z,6.07
2019-05-23T14:52:01.631Z,9.37
2019-05-23T14:54:36.825Z,6.43
2019-05-23T14:57:05.912Z,3.40
2019-05-23T14:59:33.261Z,3.47
2019-05-23T15:02:00.384Z,4.83
2019-05-23T15:04:27.887Z,6.07
2019-05-23T15:06:54.961Z,5.87
2019-05-23T15:09:22.886Z,4.30
2019-05-23T15:11:50.561Z,5.67
2019-05-23T15:14:17.597Z,5.17
2019-05-23T15:16:44.577Z,4.60
2019-05-23T15:19:13.108Z,4.90
2019-05-23T15:21:40.176Z,6.27
2019-05-23T15:24:07.167Z,3.90
2019-05-23T15:26:54.435Z,7.13
2019-05-23T15:29:22.291Z,8.17
2019-05-23T15:32:02.306Z,3.87
2019-05-23T15:34:26.219Z,5.43
2019-05-23T15:36:53.762Z,5.93
2019-05-23T15:39:21.488Z,4.97
2019-05-23T15:41:48.652Z,5.20
2019-05-23T15:44:25.801Z,4.53
2019-05-23T15:46:44.872Z,6.67
2019-05-23T15:49:14.070Z,4.03
2019-05-23T15:51:52.433Z,4.67
2019-05-23T15:57:15.753Z,4.33
2019-05-23T15:59:55.168Z,3.00
2019-05-23T16:02:25.494Z,3.90
2019-05-23T16:04:54.630Z,3.20
2019-05-23T16:07:23.102Z,3.03
2019-05-23T16:09:50.340Z,3.03
2019-05-23T16:12:17.570Z,4.87
2019-05-23T16:14:45.102Z,3.83
2019-05-23T16:17:32.410Z,3.80
2019-05-23T16:19:59.359Z,4.23
2019-05-23T16:22:46.019Z,4.13
2019-05-23T16:25:13.535Z,2.43
2019-05-23T16:27:40.896Z,3.90
2019-05-23T16:30:08.394Z,2.80
2019-05-23T16:32:35.508Z,4.53
2019-05-23T16:35:22.388Z,3.27
2019-05-23T16:37:49.781Z,2.40
2019-05-23T16:40:17.381Z,4.30
2019-05-23T16:43:04.740Z,3.17
2019-05-23T16:45:32.018Z,3.80
2019-05-23T16:48:18.967Z,2.67
2019-05-23T16:51:06.332Z,3.67
2019-05-23T16:53:35.949Z,2.40
2019-05-23T16:56:08.806Z,6.70
2019-05-23T16:58:48.859Z,3.43
2019-05-23T17:01:26.134Z,3.60
2019-05-23T17:04:12.693Z,5.53
2019-05-23T17:06:55.061Z,2.47
2019-05-23T17:09:40.040Z,1.90
2019-05-23T17:12:20.575Z,2.90
2019-05-23T17:14:58.433Z,3.00
2019-05-23T17:18:00.615Z,2.83
2019-05-23T17:20:23.429Z,4.50
2019-05-23T17:23:03.274Z,2.50
2019-05-23T17:25:43.353Z,2.40
2019-05-23T17:28:14.982Z,2.60
2019-05-23T17:30:50.564Z,2.10
2019-05-23T17:33:18.200Z,2.70
2019-05-23T17:35:45.134Z,3.17
2019-05-23T17:38:12.662Z,1.60
2019-05-23T17:40:40.480Z,1.50
2019-05-23T17:43:27.229Z,1.63
2019-05-23T17:45:55.112Z,1.47
2019-05-23T17:48:22.014Z,2.50
2019-05-23T17:50:59.087Z,1.50
2019-05-23T17:53:26.551Z,1.87
2019-05-23T17:55:56.207Z,2.27
2019-05-23T17:58:25.267Z,2.60
2019-05-23T18:00:54.989Z,2.70
2019-05-23T18:03:22.604Z,1.83
2019-05-23T18:05:49.900Z,2.13
2019-05-23T18:08:18.374Z,1.53
2019-05-23T18:10:46.221Z,1.73
2019-05-23T18:13:15.054Z,2.37
2019-05-23T18:15:42.579Z,2.40
2019-05-23T18:18:09.676Z,2.83
2019-05-23T18:20:37.230Z,3.10
2019-05-23T18:23:05.280Z,1.60
2019-05-23T18:25:32.468Z,2.33
2019-05-23T18:27:59.455Z,2.17
2019-05-23T18:30:32.433Z,4.40
2019-05-23T18:33:00.151Z,2.70
2019-05-23T18:35:27.472Z,1.50
2019-05-23T18:37:54.751Z,1.77
2019-05-23T18:40:22.608Z,1.50
2019-05-23T18:42:49.833Z,1.63
2019-05-23T18:45:18.372Z,3.00
2019-05-23T18:47:45.615Z,1.30
2019-05-23T18:50:15.006Z,2.87
2019-05-23T18:52:43.655Z,1.50
2019-05-23T18:55:30.633Z,1.27
2019-05-23T18:57:58.975Z,3.10
2019-05-23T19:01:24.099Z,2.33
2019-05-23T19:03:55.344Z,1.90
2019-05-23T19:06:23.024Z,5.40
2019-05-23T19:08:51.230Z,1.83
2019-05-23T19:11:59.313Z,1.90
2019-05-23T19:14:26.822Z,1.30
2019-05-23T19:16:54.591Z,2.20
2019-05-23T19:19:22.029Z,3.33
2019-05-23T19:21:52.122Z,3.93
2019-05-23T19:24:20.257Z,1.50
2019-05-23T19:26:47.874Z,1.50
2019-05-23T19:29:16.955Z,2.70
2019-05-23T19:31:44.014Z,1.50
2019-05-23T19:34:11.124Z,1.77
2019-05-23T19:36:38.623Z,1.53
2019-05-23T19:39:49.926Z,1.77
2019-05-23T19:42:17.938Z,2.20
2019-05-23T19:44:44.939Z,2.33
2019-05-23T19:47:12.343Z,1.60
2019-05-23T19:49:39.820Z,1.83
2019-05-23T19:52:07.024Z,1.23
2019-05-23T19:54:34.079Z,2.40
2019-05-23T19:57:01.044Z,1.73
2019-05-23T19:59:28.439Z,1.70
2019-05-23T20:02:13.764Z,2.40
2019-05-23T20:04:44.436Z,1.50
2019-05-23T20:07:15.310Z,1.93
2019-05-23T20:09:41.471Z,3.37
2019-05-23T20:12:28.272Z,1.93
2019-05-23T20:14:55.176Z,2.97
2019-05-23T20:17:22.132Z,2.57
2019-05-23T20:19:50.578Z,2.53
2019-05-23T20:22:18.217Z,2.03
2019-05-23T20:24:45.104Z,2.67
2019-05-23T20:27:12.239Z,2.03
2019-05-23T20:29:39.134Z,2.57
2019-05-23T20:32:07.416Z,4.07
2019-05-23T20:34:35.410Z,2.90
2019-05-23T20:37:02.330Z,2.83
2019-05-23T20:39:29.724Z,2.40
2019-05-23T20:42:10.428Z,2.53
2019-05-23T20:44:25.524Z,2.97
2019-05-23T20:46:52.593Z,3.17
2019-05-23T20:49:19.548Z,2.23
2019-05-23T20:52:06.250Z,2.47
2019-05-23T20:54:33.870Z,2.87
2019-05-23T20:57:01.765Z,2.20
2019-05-23T20:59:29.399Z,2.83
2019-05-23T21:01:56.457Z,2.30
2019-05-23T21:04:23.476Z,3.07
2019-05-23T21:06:51.506Z,3.10
2019-05-23T21:09:19.369Z,2.90
2019-05-23T21:11:46.465Z,2.43
2019-05-23T21:14:13.544Z,2.33
2019-05-23T21:16:40.552Z,2.93
2019-05-23T21:19:07.445Z,3.70
2019-05-23T21:21:35.742Z,2.80
2019-05-23T21:24:02.917Z,3.27
2019-05-23T21:26:30.059Z,2.97
2019-05-23T21:29:16.691Z,4.10
2019-05-23T21:31:45.894Z,3.53
2019-05-23T21:34:13.536Z,2.60
2019-05-23T21:36:40.427Z,2.97
2019-05-23T21:39:09.108Z,1.93
2019-05-23T21:41:36.588Z,2.60
2019-05-23T21:44:04.024Z,3.23
2019-05-23T21:46:31.041Z,2.77
2019-05-23T21:48:58.034Z,2.87
2019-05-23T21:51:25.439Z,2.70
2019-05-23T21:53:52.935Z,3.30
2019-05-23T21:56:19.830Z,3.67
2019-05-23T21:59:06.407Z,2.83
2019-05-23T22:01:42.045Z,3.03
2019-05-23T22:04:40.919Z,3.50
2019-05-23T22:07:08.833Z,4.53
2019-05-23T22:09:37.195Z,3.77
2019-05-23T22:12:08.647Z,5.97
2019-05-23T22:14:36.169Z,3.97
2019-05-23T22:17:03.389Z,3.47
2019-05-23T22:19:32.352Z,5.43
2019-05-23T22:21:59.787Z,3.50
2019-05-23T22:24:26.816Z,2.97
2019-05-23T22:26:53.756Z,4.27
2019-05-23T22:29:20.912Z,4.40
2019-05-23T22:31:47.802Z,3.43
2019-05-23T22:34:25.883Z,2.60
2019-05-23T22:36:53.431Z,3.07
2019-05-23T22:39:20.430Z,3.10
2019-05-23T22:41:47.461Z,3.17
2019-05-23T22:44:14.450Z,2.70
2019-05-23T22:46:42.044Z,2.73
2019-05-23T22:49:09.518Z,3.33
2019-05-23T22:51:36.608Z,2.77
2019-05-23T22:54:03.917Z,3.77
2019-05-23T22:56:30.870Z,3.40
2019-05-23T22:58:58.575Z,2.93
2019-05-23T23:01:27.708Z,3.60
2019-05-23T23:03:55.872Z,3.53
2019-05-23T23:06:23.267Z,4.23
2019-05-23T23:08:50.151Z,3.50
2019-05-23T23:11:17.163Z,3.40
2019-05-23T23:13:44.602Z,3.83
2019-05-23T23:16:12.457Z,3.53
2019-05-23T23:18:39.572Z,3.77
2019-05-23T23:21:06.591Z,4.40
2019-05-23T23:23:34.023Z,3.30
2019-05-23T23:26:01.469Z,4.73
2019-05-23T23:28:28.454Z,4.20
2019-05-23T23:30:55.881Z,4.27
2019-05-23T23:33:22.759Z,3.43
2019-05-23T23:36:09.284Z,5.47
2019-05-23T23:38:36.210Z,5.40
2019-05-23T23:41:03.498Z,3.53
2019-05-23T23:43:31.139Z,4.70
2019-05-23T23:46:16.484Z,3.60
2019-05-23T23:49:01.535Z,3.27
2019-05-23T23:51:48.419Z,3.60
2019-05-23T23:54:53.366Z,5.00
2019-05-23T23:57:39.703Z,4.13
